sensor_id;sensor_type;location;lat;lon;timestamp;pressure;altitude;pressure_sealevel;temperature;humidity
45113;BME280;30873;53.908;27.576;2023-04-23T00:01:40;1014.9;;;18.4;55.6
45113;BME280;30873;53.908;27.576;2023-04-23T00:06:16;1014.9;;;18.4;56.2
45113;BME280;30873;53.908;27.576;2023-04-23T00:11:40;1014.9;;;18.5;56.1
45113;BME280;30873;53.908;27.576;2023-04-23T00:16:54;1014.9;;;18.5;56
45113;BME280;30873;53.908;27.576;2023-04-23T00:21:16;1014.9;;;18.6;56.1
45113;BME280;30873;53.908;27.576;2023-04-23T00:26:52;1014.9;;;18.5;56.7
45113;BME280;30873;53.908;27.576;2023-04-23T00:31:26;1014.8;;;18.5;57.1
45113;BME280;30873;53.908;27.576;2023-04-23T00:36:14;1014.9;;;18.5;57.1
45113;BME280;30873;53.908;27.576;2023-04-23T00:41:18;1014.9;;;18.5;57.6
45113;BME280;30873;53.908;27.576;2023-04-23T00:46:14;1014.9;;;18.5;56.9
45113;BME280;30873;53.908;27.576;2023-04-23T00:51:28;1014.8;;;18.4;57.9
45113;BME280;30873;53.908;27.576;2023-04-23T00:56:16;1014.8;;;18.3;59.1
45113;BME280;30873;53.908;27.576;2023-04-23T01:01:54;1014.8;;;18.4;59.7
45113;BME280;30873;53.908;27.576;2023-04-23T01:06:16;1014.8;;;18.4;59.5
45113;BME280;30873;53.908;27.576;2023-04-23T01:11:28;1014.8;;;18.3;59.4
45113;BME280;30873;53.908;27.576;2023-04-23T01:16:54;1014.8;;;18.3;59.6
45113;BME280;30873;53.908;27.576;2023-04-23T01:21:54;1014.8;;;18.2;59.9
45113;BME280;30873;53.908;27.576;2023-04-23T01:26:28;1014.8;;;18.3;59.1
45113;BME280;30873;53.908;27.576;2023-04-23T01:31:16;1014.9;;;18.4;59.3
45113;BME280;30873;53.908;27.576;2023-04-23T01:36:54;1014.9;;;18.3;59.4
45113;BME280;30873;53.908;27.576;2023-04-23T01:41:42;1014.9;;;18.3;59
45113;BME280;30873;53.908;27.576;2023-04-23T01:46:16;1014.9;;;18.2;59.6
45113;BME280;30873;53.908;27.576;2023-04-23T01:51:26;1014.9;;;18.2;59.8
45113;BME280;30873;53.908;27.576;2023-04-23T01:56:52;1014.9;;;18.2;60.2
45113;BME280;30873;53.908;27.576;2023-04-23T02:01:32;1014.9;;;18.2;60.1
45113;BME280;30873;53.908;27.576;2023-04-23T02:06:04;1014.9;;;18.2;60.5
45113;BME280;30873;53.908;27.576;2023-04-23T02:11:52;1014.9;;;18.2;61.5
45113;BME280;30873;53.908;27.576;2023-04-23T02:16:28;1014.9;;;18.2;61.7
45113;BME280;30873;53.908;27.576;2023-04-23T02:21:28;1015;;;18;61.6
45113;BME280;30873;53.908;27.576;2023-04-23T02:26:38;1015;;;17.9;61.9
45113;BME280;30873;53.908;27.576;2023-04-23T02:31:04;1015;;;17.9;62.8
45113;BME280;30873;53.908;27.576;2023-04-23T02:36:52;1015;;;17.9;63
45113;BME280;30873;53.908;27.576;2023-04-23T02:41:28;1015;;;17.8;64.7
45113;BME280;30873;53.908;27.576;2023-04-23T02:46:54;1015;;;17.8;64.3
45113;BME280;30873;53.908;27.576;2023-04-23T02:51:40;1015.1;;;17.8;64.5
45113;BME280;30873;53.908;27.576;2023-04-23T02:56:54;1015.1;;;17.9;63.6
45113;BME280;30873;53.908;27.576;2023-04-23T03:01:22;1015.1;;;18;63.1
45113;BME280;30873;53.908;27.576;2023-04-23T03:06:54;1015.2;;;17.8;63.3
45113;BME280;30873;53.908;27.576;2023-04-23T03:11:42;1015.2;;;17.8;63.5
45113;BME280;30873;53.908;27.576;2023-04-23T03:16:40;1015.2;;;17.9;63.2
45113;BME280;30873;53.908;27.576;2023-04-23T03:21:04;1015.2;;;17.9;63.3
45113;BME280;30873;53.908;27.576;2023-04-23T03:26:16;1015.3;;;18;62.8
45113;BME280;30873;53.908;27.576;2023-04-23T03:31:54;1015.3;;;18.1;63.8
45113;BME280;30873;53.908;27.576;2023-04-23T03:36:26;1015.4;;;18.1;63.9
45113;BME280;30873;53.908;27.576;2023-04-23T03:41:04;1015.4;;;18.1;64
45113;BME280;30873;53.908;27.576;2023-04-23T03:46:40;1015.5;;;18.3;63.5
45113;BME280;30873;53.908;27.576;2023-04-23T03:51:26;1015.5;;;18.3;63.9
45113;BME280;30873;53.908;27.576;2023-04-23T03:56:04;1015.5;;;18.3;63.4
45113;BME280;30873;53.908;27.576;2023-04-23T04:01:41;1015.5;;;18.3;63.2
45113;BME280;30873;53.908;27.576;2023-04-23T04:06:54;1015.5;;;18.3;63.2
45113;BME280;30873;53.908;27.576;2023-04-23T04:11:24;1015.5;;;18.3;61.1
45113;BME280;30873;53.908;27.576;2023-04-23T04:16:04;1015.5;;;18.4;59.2
45113;BME280;30873;53.908;27.576;2023-04-23T04:21:52;1015.6;;;18.6;58.6
45113;BME280;30873;53.908;27.576;2023-04-23T04:26:54;1015.6;;;18.7;59.2
45113;BME280;30873;53.908;27.576;2023-04-23T04:31:14;1015.7;;;18.8;58.8
45113;BME280;30873;53.908;27.576;2023-04-23T04:36:14;1015.7;;;18.9;58.7
45113;BME280;30873;53.908;27.576;2023-04-23T04:41:54;1015.7;;;19;56
45113;BME280;30873;53.908;27.576;2023-04-23T04:46:42;1015.7;;;19.3;55.8
45113;BME280;30873;53.908;27.576;2023-04-23T04:51:16;1015.7;;;19.4;53.7
45113;BME280;30873;53.908;27.576;2023-04-23T04:56:14;1015.7;;;19.5;53
45113;BME280;30873;53.908;27.576;2023-04-23T05:01:52;1015.7;;;19.6;52.2
45113;BME280;30873;53.908;27.576;2023-04-23T05:06:26;1015.7;;;19.8;51.6
45113;BME280;30873;53.908;27.576;2023-04-23T05:11:04;1015.7;;;20;50.6
45113;BME280;30873;53.908;27.576;2023-04-23T05:16:52;1015.8;;;20.2;50.2
45113;BME280;30873;53.908;27.576;2023-04-23T05:21:16;1015.9;;;20.3;50
45113;BME280;30873;53.908;27.576;2023-04-23T05:26:28;1015.9;;;20.4;50.1
45113;BME280;30873;53.908;27.576;2023-04-23T05:31:30;1015.9;;;20.5;47.9
45113;BME280;30873;53.908;27.576;2023-04-23T05:36:04;1016;;;20.5;46.8
45113;BME280;30873;53.908;27.576;2023-04-23T05:41:40;1015.9;;;20.6;45.8
45113;BME280;30873;53.908;27.576;2023-04-23T05:46:28;1016;;;20.7;44
45113;BME280;30873;53.908;27.576;2023-04-23T05:51:52;1016;;;20.8;44.1
45113;BME280;30873;53.908;27.576;2023-04-23T05:56:40;1016;;;20.8;43.4
45113;BME280;30873;53.908;27.576;2023-04-23T06:01:52;1016;;;20.8;42.8
45113;BME280;30873;53.908;27.576;2023-04-23T06:06:26;1015.9;;;20.9;43.3
45113;BME280;30873;53.908;27.576;2023-04-23T06:11:54;1015.9;;;21;42.8
45113;BME280;30873;53.908;27.576;2023-04-23T06:16:28;1016;;;21.1;42.5
45113;BME280;30873;53.908;27.576;2023-04-23T06:21:18;1015.9;;;21.2;42.3
45113;BME280;30873;53.908;27.576;2023-04-23T06:26:16;1015.9;;;21.9;41.5
45113;BME280;30873;53.908;27.576;2023-04-23T06:31:28;1016;;;22.1;40.8
45113;BME280;30873;53.908;27.576;2023-04-23T06:36:28;1016;;;22;39.3
45113;BME280;30873;53.908;27.576;2023-04-23T06:41:28;1016;;;21.8;39.7
45113;BME280;30873;53.908;27.576;2023-04-23T06:46:14;1016;;;21.6;40.1
45113;BME280;30873;53.908;27.576;2023-04-23T06:51:54;1016;;;22.2;39.2
45113;BME280;30873;53.908;27.576;2023-04-23T06:56:52;1015.9;;;22.4;38.4
45113;BME280;30873;53.908;27.576;2023-04-23T07:01:04;1015.9;;;22.7;38
45113;BME280;30873;53.908;27.576;2023-04-23T07:06:40;1015.9;;;23.1;37.4
45113;BME280;30873;53.908;27.576;2023-04-23T07:11:42;1015.9;;;23.1;36.9
45113;BME280;30873;53.908;27.576;2023-04-23T07:16:04;1015.9;;;23.2;36.8
45113;BME280;30873;53.908;27.576;2023-04-23T07:21:04;1015.9;;;23.3;36.2
45113;BME280;30873;53.908;27.576;2023-04-23T07:26:40;1015.9;;;23.5;35.9
45113;BME280;30873;53.908;27.576;2023-04-23T07:31:52;1015.8;;;23.7;34.6
45113;BME280;30873;53.908;27.576;2023-04-23T07:36:28;1015.8;;;23.6;33.6
45113;BME280;30873;53.908;27.576;2023-04-23T07:41:16;1015.8;;;24;32.5
45113;BME280;30873;53.908;27.576;2023-04-23T07:46:40;1015.8;;;24.3;30.8
45113;BME280;30873;53.908;27.576;2023-04-23T07:51:16;1015.8;;;24.1;29.6
45113;BME280;30873;53.908;27.576;2023-04-23T07:56:26;1015.8;;;24.1;27.6
45113;BME280;30873;53.908;27.576;2023-04-23T08:01:04;1015.8;;;24.2;27.3
45113;BME280;30873;53.908;27.576;2023-04-23T08:06:52;1015.8;;;23.9;26.5
45113;BME280;30873;53.908;27.576;2023-04-23T08:11:14;1015.8;;;23.6;26.7
45113;BME280;30873;53.908;27.576;2023-04-23T08:16:04;1015.9;;;23.7;27.3
45113;BME280;30873;53.908;27.576;2023-04-23T08:21:54;1015.9;;;23.2;27.7
45113;BME280;30873;53.908;27.576;2023-04-23T08:26:38;1015.9;;;22.8;27.5
45113;BME280;30873;53.908;27.576;2023-04-23T08:31:14;1015.8;;;22.7;27.8
45113;BME280;30873;53.908;27.576;2023-04-23T08:36:36;1015.8;;;23.2;27.7
45113;BME280;30873;53.908;27.576;2023-04-23T08:41:04;1015.8;;;23.8;27.3
45113;BME280;30873;53.908;27.576;2023-04-23T08:46:40;1015.8;;;23.9;27.1
45113;BME280;30873;53.908;27.576;2023-04-23T08:51:39;1015.8;;;24.8;26.3
45113;BME280;30873;53.908;27.576;2023-04-23T08:56:53;1015.7;;;25.8;24.8
45113;BME280;30873;53.908;27.576;2023-04-23T09:01:06;1015.7;;;26;24.4
45113;BME280;30873;53.908;27.576;2023-04-23T09:06:52;1015.7;;;26.5;24.5
45113;BME280;30873;53.908;27.576;2023-04-23T09:11:26;1015.7;;;26;25.1
45113;BME280;30873;53.908;27.576;2023-04-23T09:16:52;1015.7;;;25.9;24.8
45113;BME280;30873;53.908;27.576;2023-04-23T09:21:26;1015.7;;;25.5;25.4
45113;BME280;30873;53.908;27.576;2023-04-23T09:26:43;1015.6;;;26.1;24.9
45113;BME280;30873;53.908;27.576;2023-04-23T09:31:53;1015.6;;;28.2;22.9
45113;BME280;30873;53.908;27.576;2023-04-23T09:36:41;1015.5;;;28.2;22.6
45113;BME280;30873;53.908;27.576;2023-04-23T09:41:40;1015.5;;;30.4;20.9
45113;BME280;30873;53.908;27.576;2023-04-23T09:46:32;1015.4;;;31.1;19.8
45113;BME280;30873;53.908;27.576;2023-04-23T09:51:14;1015.4;;;30.5;19.9
45113;BME280;30873;53.908;27.576;2023-04-23T09:56:54;1015.4;;;30.6;19.7
45113;BME280;30873;53.908;27.576;2023-04-23T10:01:52;1015.5;;;29.1;20.3
45113;BME280;30873;53.908;27.576;2023-04-23T10:06:16;1015.4;;;29.7;20.2
45113;BME280;30873;53.908;27.576;2023-04-23T10:11:39;1015.4;;;31.5;19
45113;BME280;30873;53.908;27.576;2023-04-23T10:16:40;1015.4;;;30.5;19.8
45113;BME280;30873;53.908;27.576;2023-04-23T10:21:14;1015.3;;;30.5;19.8
45113;BME280;30873;53.908;27.576;2023-04-23T10:26:26;1015.4;;;29.3;20.7
45113;BME280;30873;53.908;27.576;2023-04-23T10:31:38;1015.3;;;31;19.9
45113;BME280;30873;53.908;27.576;2023-04-23T10:36:53;1015.2;;;32.9;18.5
45113;BME280;30873;53.908;27.576;2023-04-23T10:41:52;1015.2;;;34.2;17.5
45113;BME280;30873;53.908;27.576;2023-04-23T10:46:26;1015;;;35.4;16.7
45113;BME280;30873;53.908;27.576;2023-04-23T10:51:44;1014.9;;;36.4;16.2
45113;BME280;30873;53.908;27.576;2023-04-23T10:56:42;1014.9;;;36;16
45113;BME280;30873;53.908;27.576;2023-04-23T11:01:15;1014.9;;;36.1;15.9
45113;BME280;30873;53.908;27.576;2023-04-23T11:07:03;1014.9;;;35.8;15.6
45113;BME280;30873;53.908;27.576;2023-04-23T11:11:18;1014.9;;;36.4;15.6
45113;BME280;30873;53.908;27.576;2023-04-23T11:16:20;1014.8;;;34.7;16.3
45113;BME280;30873;53.908;27.576;2023-04-23T11:22:12;1014.8;;;31.4;18.5
45113;BME280;30873;53.908;27.576;2023-04-23T11:26:54;1014.9;;;29.9;20.1
45113;BME280;30873;53.908;27.576;2023-04-23T11:31:28;1014.8;;;30.5;20.2
45113;BME280;30873;53.908;27.576;2023-04-23T11:36:28;1014.7;;;32.2;18.9
45113;BME280;30873;53.908;27.576;2023-04-23T11:41:40;1014.7;;;30.3;19.9
45113;BME280;30873;53.908;27.576;2023-04-23T11:46:26;1014.8;;;30.2;20.4
45113;BME280;30873;53.908;27.576;2023-04-23T11:51:41;1014.8;;;31.1;19.7
45113;BME280;30873;53.908;27.576;2023-04-23T11:56:29;1014.8;;;29.1;21.5
45113;BME280;30873;53.908;27.576;2023-04-23T12:01:55;1014.8;;;28.4;22
45113;BME280;30873;53.908;27.576;2023-04-23T12:06:55;1014.7;;;27.9;22.5
45113;BME280;30873;53.908;27.576;2023-04-23T12:11:55;1014.7;;;28.3;22.5
45113;BME280;30873;53.908;27.576;2023-04-23T12:16:35;1014.7;;;29;21.6
45113;BME280;30873;53.908;27.576;2023-04-23T12:21:55;1014.7;;;30.3;20.3
45113;BME280;30873;53.908;27.576;2023-04-23T12:26:08;1014.6;;;30.6;19.9
45113;BME280;30873;53.908;27.576;2023-04-23T12:31:28;1014.6;;;30.3;19.6
45113;BME280;30873;53.908;27.576;2023-04-23T12:36:16;1014.5;;;28.3;21.3
45113;BME280;30873;53.908;27.576;2023-04-23T12:41:28;1014.5;;;28.7;21.2
45113;BME280;30873;53.908;27.576;2023-04-23T12:46:18;1014.4;;;32.2;18.9
45113;BME280;30873;53.908;27.576;2023-04-23T12:51:04;1014.5;;;34.2;17
45113;BME280;30873;53.908;27.576;2023-04-23T12:56:14;1014.3;;;35.4;16.2
45113;BME280;30873;53.908;27.576;2023-04-23T13:01:54;1014.3;;;36.8;15.4
45113;BME280;30873;53.908;27.576;2023-04-23T13:06:52;1014.2;;;36.4;15.2
45113;BME280;30873;53.908;27.576;2023-04-23T13:11:04;1014.2;;;36.1;15.3
45113;BME280;30873;53.908;27.576;2023-04-23T13:16:40;1014.2;;;34.6;16.2
45113;BME280;30873;53.908;27.576;2023-04-23T13:21:42;1014.2;;;31.9;18.1
45113;BME280;30873;53.908;27.576;2023-04-23T13:26:16;1014.2;;;34.4;16.8
45113;BME280;30873;53.908;27.576;2023-04-23T13:31:04;1014.2;;;33.1;17.2
45113;BME280;30873;53.908;27.576;2023-04-23T13:36:38;1014.2;;;29.9;19.3
45113;BME280;30873;53.908;27.576;2023-04-23T13:41:52;1014.2;;;29.1;20.2
45113;BME280;30873;53.908;27.576;2023-04-23T13:46:52;1014.1;;;29.3;20.2
45113;BME280;30873;53.908;27.576;2023-04-23T13:51:38;1014.1;;;29.4;19.9
45113;BME280;30873;53.908;27.576;2023-04-23T13:56:52;1014.1;;;29.6;20
45113;BME280;30873;53.908;27.576;2023-04-23T14:01:40;1014;;;30.9;19.3
45113;BME280;30873;53.908;27.576;2023-04-23T14:06:05;1014;;;30.5;19.4
45113;BME280;30873;53.908;27.576;2023-04-23T14:11:24;1013.9;;;30.5;19.4
45113;BME280;30873;53.908;27.576;2023-04-23T14:16:38;1013.9;;;33.6;17.3
45113;BME280;30873;53.908;27.576;2023-04-23T14:21:38;1013.8;;;34.8;16.1
45113;BME280;30873;53.908;27.576;2023-04-23T14:26:36;1013.8;;;34.9;16.1
45113;BME280;30873;53.908;27.576;2023-04-23T14:31:52;1013.8;;;32.7;17.5
45113;BME280;30873;53.908;27.576;2023-04-23T14:36:16;1013.7;;;32.5;17.7
45113;BME280;30873;53.908;27.576;2023-04-23T14:41:52;1013.6;;;33;17.1
45113;BME280;30873;53.908;27.576;2023-04-23T14:46:16;1013.6;;;30.7;18.6
45113;BME280;30873;53.908;27.576;2023-04-23T14:51:14;1013.7;;;28.4;20.1
45113;BME280;30873;53.908;27.576;2023-04-23T14:56:38;1013.7;;;27;21.2
45113;BME280;30873;53.908;27.576;2023-04-23T15:01:36;1013.7;;;26.3;22.1
45113;BME280;30873;53.908;27.576;2023-04-23T15:06:05;1013.7;;;26;22.5
45113;BME280;30873;53.908;27.576;2023-04-23T15:11:39;1013.7;;;25.5;23.3
45113;BME280;30873;53.908;27.576;2023-04-23T15:16:52;1013.7;;;25.1;24
45113;BME280;30873;53.908;27.576;2023-04-23T15:21:24;1013.6;;;25.1;24.1
45113;BME280;30873;53.908;27.576;2023-04-23T15:26:26;1013.7;;;24.9;24.7
45113;BME280;30873;53.908;27.576;2023-04-23T15:31:52;1013.6;;;24.8;25.1
45113;BME280;30873;53.908;27.576;2023-04-23T15:36:52;1013.6;;;24.7;25.3
45113;BME280;30873;53.908;27.576;2023-04-23T15:41:27;1013.5;;;27.1;23.3
45113;BME280;30873;53.908;27.576;2023-04-23T15:46:04;1013.5;;;27.3;22.7
45113;BME280;30873;53.908;27.576;2023-04-23T15:51:38;1013.4;;;25.7;24.2
45113;BME280;30873;53.908;27.576;2023-04-23T15:56:26;1013.4;;;26.3;24.1
45113;BME280;30873;53.908;27.576;2023-04-23T16:01:24;1013.4;;;29.4;21.4
45113;BME280;30873;53.908;27.576;2023-04-23T16:06:52;1013.4;;;31.4;19.9
45113;BME280;30873;53.908;27.576;2023-04-23T16:11:52;1013.3;;;32.4;19.1
45113;BME280;30873;53.908;27.576;2023-04-23T16:16:04;1013.3;;;33;18.6
45113;BME280;30873;53.908;27.576;2023-04-23T16:21:38;1013.3;;;33;18.4
45113;BME280;30873;53.908;27.576;2023-04-23T16:26:38;1013.3;;;32.9;18.7
45113;BME280;30873;53.908;27.576;2023-04-23T16:31:04;1013.3;;;32.3;19.1
45113;BME280;30873;53.908;27.576;2023-04-23T16:36:16;1013.2;;;30.5;20.4
45113;BME280;30873;53.908;27.576;2023-04-23T16:41:38;1013.3;;;28.3;22.4
45113;BME280;30873;53.908;27.576;2023-04-23T16:46:52;1013.3;;;26.7;24.1
45113;BME280;30873;53.908;27.576;2023-04-23T16:51:52;1013.3;;;25.2;25.3
45113;BME280;30873;53.908;27.576;2023-04-23T16:56:26;1013.3;;;24.4;26.4
45113;BME280;30873;53.908;27.576;2023-04-23T17:01:52;1013.4;;;23.8;27.1
45113;BME280;30873;53.908;27.576;2023-04-23T17:06:40;1013.3;;;23.2;27.9
45113;BME280;30873;53.908;27.576;2023-04-23T17:11:14;1013.3;;;22.8;28.4
45113;BME280;30873;53.908;27.576;2023-04-23T17:16:04;1013.4;;;22.5;28.8
45113;BME280;30873;53.908;27.576;2023-04-23T17:21:36;1013.4;;;22.2;29.3
45113;BME280;30873;53.908;27.576;2023-04-23T17:26:04;1013.4;;;22;29.8
45113;BME280;30873;53.908;27.576;2023-04-23T17:31:38;1013.4;;;21.8;30.3
45113;BME280;30873;53.908;27.576;2023-04-23T17:36:48;1013.4;;;21.6;30.6
45113;BME280;30873;53.908;27.576;2023-04-23T17:41:05;1013.5;;;21.4;31
45113;BME280;30873;53.908;27.576;2023-04-23T17:46:52;1013.5;;;21.2;31.5
45113;BME280;30873;53.908;27.576;2023-04-23T17:51:24;1013.6;;;21.1;31.8
45113;BME280;30873;53.908;27.576;2023-04-23T17:56:05;1013.6;;;20.9;32.1
45113;BME280;30873;53.908;27.576;2023-04-23T18:01:40;1013.7;;;20.7;32.4
45113;BME280;30873;53.908;27.576;2023-04-23T18:06:05;1013.7;;;20.6;32.6
45113;BME280;30873;53.908;27.576;2023-04-23T18:11:14;1013.7;;;20.6;32.8
45113;BME280;30873;53.908;27.576;2023-04-23T18:16:12;1013.7;;;20.5;32.8
45113;BME280;30873;53.908;27.576;2023-04-23T18:21:52;1013.7;;;20.3;33
45113;BME280;30873;53.908;27.576;2023-04-23T18:26:24;1013.6;;;20.3;33.1
45113;BME280;30873;53.908;27.576;2023-04-23T18:31:26;1013.6;;;20.2;33.3
45113;BME280;30873;53.908;27.576;2023-04-23T18:36:53;1013.6;;;20.1;33.4
45113;BME280;30873;53.908;27.576;2023-04-23T18:41:52;1013.6;;;20;33.6
45113;BME280;30873;53.908;27.576;2023-04-23T18:46:14;1013.7;;;19.9;33.8
45113;BME280;30873;53.908;27.576;2023-04-23T18:51:12;1013.7;;;19.8;34.2
45113;BME280;30873;53.908;27.576;2023-04-23T18:56:50;1013.8;;;19.7;34.4
45113;BME280;30873;53.908;27.576;2023-04-23T19:01:39;1013.8;;;19.7;34.5
45113;BME280;30873;53.908;27.576;2023-04-23T19:06:04;1013.7;;;19.6;34.8
45113;BME280;30873;53.908;27.576;2023-04-23T19:11:14;1013.8;;;19.5;34.9
45113;BME280;30873;53.908;27.576;2023-04-23T19:16:53;1013.8;;;19.5;35.1
45113;BME280;30873;53.908;27.576;2023-04-23T19:21:24;1013.8;;;19.4;35.2
45113;BME280;30873;53.908;27.576;2023-04-23T19:26:04;1013.8;;;19.3;35.2
45113;BME280;30873;53.908;27.576;2023-04-23T19:31:52;1013.8;;;19.2;35.3
45113;BME280;30873;53.908;27.576;2023-04-23T19:36:26;1013.7;;;19.2;35.5
45113;BME280;30873;53.908;27.576;2023-04-23T19:41:26;1013.7;;;19.2;35.7
45113;BME280;30873;53.908;27.576;2023-04-23T19:46:38;1013.7;;;19.1;36
45113;BME280;30873;53.908;27.576;2023-04-23T19:51:05;1013.7;;;19;36.1
45113;BME280;30873;53.908;27.576;2023-04-23T19:56:42;1013.7;;;18.9;36.1
45113;BME280;30873;53.908;27.576;2023-04-23T20:01:04;1013.7;;;18.9;36.3
45113;BME280;30873;53.908;27.576;2023-04-23T20:06:54;1013.7;;;18.8;36.3
45113;BME280;30873;53.908;27.576;2023-04-23T20:11:40;1013.8;;;18.8;36.5
45113;BME280;30873;53.908;27.576;2023-04-23T20:16:53;1013.8;;;18.6;36.8
45113;BME280;30873;53.908;27.576;2023-04-23T20:21:16;1013.8;;;18.5;36.9
45113;BME280;30873;53.908;27.576;2023-04-23T20:26:52;1013.8;;;18.4;37.2
45113;BME280;30873;53.908;27.576;2023-04-23T20:31:04;1013.8;;;18.3;37.5
45113;BME280;30873;53.908;27.576;2023-04-23T20:36:38;1013.7;;;18.3;37.7
45113;BME280;30873;53.908;27.576;2023-04-23T20:41:27;1013.7;;;18.2;38
45113;BME280;30873;53.908;27.576;2023-04-23T20:46:39;1013.7;;;18.1;38.3
45113;BME280;30873;53.908;27.576;2023-04-23T20:51:41;1013.7;;;18;38.7
45113;BME280;30873;53.908;27.576;2023-04-23T20:56:05;1013.7;;;17.9;39
45113;BME280;30873;53.908;27.576;2023-04-23T21:01:05;1013.7;;;17.9;39.3
45113;BME280;30873;53.908;27.576;2023-04-23T21:06:39;1013.7;;;17.8;39.6
45113;BME280;30873;53.908;27.576;2023-04-23T21:11:50;1013.7;;;17.7;39.8
45113;BME280;30873;53.908;27.576;2023-04-23T21:16:05;1013.7;;;17.7;40.1
45113;BME280;30873;53.908;27.576;2023-04-23T21:21:39;1013.8;;;17.6;40.4
45113;BME280;30873;53.908;27.576;2023-04-23T21:26:07;1013.8;;;17.6;40.7
45113;BME280;30873;53.908;27.576;2023-04-23T21:31:06;1013.8;;;17.5;40.9
45113;BME280;30873;53.908;27.576;2023-04-23T21:36:39;1013.8;;;17.4;41.1
45113;BME280;30873;53.908;27.576;2023-04-23T21:41:39;1013.8;;;17.3;41.5
45113;BME280;30873;53.908;27.576;2023-04-23T21:46:53;1013.8;;;17.3;41.8
45113;BME280;30873;53.908;27.576;2023-04-23T21:51:51;1013.9;;;17.2;42.1
45113;BME280;30873;53.908;27.576;2023-04-23T21:56:27;1013.9;;;17.1;42.4
45113;BME280;30873;53.908;27.576;2023-04-23T22:01:55;1013.8;;;17;42.7
45113;BME280;30873;53.908;27.576;2023-04-23T22:06:41;1013.8;;;17;43.1
45113;BME280;30873;53.908;27.576;2023-04-23T22:11:05;1013.8;;;16.9;43.4
45113;BME280;30873;53.908;27.576;2023-04-23T22:16:15;1013.7;;;16.8;43.8
45113;BME280;30873;53.908;27.576;2023-04-23T22:21:29;1013.7;;;16.8;44.1
45113;BME280;30873;53.908;27.576;2023-04-23T22:26:05;1013.7;;;16.7;44.5
45113;BME280;30873;53.908;27.576;2023-04-23T22:31:39;1013.7;;;16.6;44.8
45113;BME280;30873;53.908;27.576;2023-04-23T22:36:55;1013.7;;;16.5;45.1
45113;BME280;30873;53.908;27.576;2023-04-23T22:41:05;1013.8;;;16.5;45.4
45113;BME280;30873;53.908;27.576;2023-04-23T22:46:55;1013.7;;;16.4;45.8
45113;BME280;30873;53.908;27.576;2023-04-23T22:51:43;1013.7;;;16.4;46.3
45113;BME280;30873;53.908;27.576;2023-04-23T22:56:15;1013.7;;;16.3;46.5
45113;BME280;30873;53.908;27.576;2023-04-23T23:01:43;1013.7;;;16.3;46.7
45113;BME280;30873;53.908;27.576;2023-04-23T23:06:17;1013.7;;;16.3;47
45113;BME280;30873;53.908;27.576;2023-04-23T23:11:05;1013.7;;;16.1;47.4
45113;BME280;30873;53.908;27.576;2023-04-23T23:16:31;1013.6;;;16.1;48.1
45113;BME280;30873;53.908;27.576;2023-04-23T23:21:55;1013.6;;;16;48.2
45113;BME280;30873;53.908;27.576;2023-04-23T23:26:27;1013.6;;;16;48.5
45113;BME280;30873;53.908;27.576;2023-04-23T23:31:17;1013.6;;;15.9;48.8
45113;BME280;30873;53.908;27.576;2023-04-23T23:36:53;1013.5;;;15.9;49.1
45113;BME280;30873;53.908;27.576;2023-04-23T23:41:53;1013.5;;;15.8;49.4
45113;BME280;30873;53.908;27.576;2023-04-23T23:46:29;1013.5;;;15.7;49.7
45113;BME280;30873;53.908;27.576;2023-04-23T23:51:05;1013.5;;;15.7;50
45113;BME280;30873;53.908;27.576;2023-04-23T23:56:29;1013.5;;;15.6;50.4
